sensor_id;sensor_type;location;lat;lon;timestamp;P1;durP1;ratioP1;P2;durP2;ratioP2
19671;SDS011;9983;51.114;13.788;2023-01-23T00:03:36;23.70;;;12.85;;
19671;SDS011;9983;51.114;13.788;2023-01-23T00:08:37;24.77;;;13.57;;
19671;SDS011;9983;51.114;13.788;2023-01-23T00:13:37;29.80;;;13.52;;
19671;SDS011;9983;51.114;13.788;2023-01-23T00:18:38;27.08;;;13.32;;
19671;SDS011;9983;51.114;13.788;2023-01-23T00:23:40;26.77;;;13.52;;
19671;SDS011;9983;51.114;13.788;2023-01-23T00:28:43;23.17;;;13.13;;
19671;SDS011;9983;51.114;13.788;2023-01-23T00:33:44;27.67;;;13.40;;
19671;SDS011;9983;51.114;13.788;2023-01-23T00:38:44;26.75;;;13.45;;
19671;SDS011;9983;51.114;13.788;2023-01-23T00:43:44;29.08;;;13.20;;
19671;SDS011;9983;51.114;13.788;2023-01-23T00:48:47;28.45;;;13.55;;
19671;SDS011;9983;51.114;13.788;2023-01-23T00:53:47;27.27;;;13.77;;
19671;SDS011;9983;51.114;13.788;2023-01-23T00:58:48;27.88;;;13.63;;
19671;SDS011;9983;51.114;13.788;2023-01-23T01:03:48;27.38;;;13.30;;
19671;SDS011;9983;51.114;13.788;2023-01-23T01:08:49;24.95;;;13.13;;
19671;SDS011;9983;51.114;13.788;2023-01-23T01:13:49;31.90;;;13.60;;
19671;SDS011;9983;51.114;13.788;2023-01-23T01:18:50;28.73;;;12.85;;
19671;SDS011;9983;51.114;13.788;2023-01-23T01:23:50;31.55;;;13.65;;
19671;SDS011;9983;51.114;13.788;2023-01-23T01:28:50;26.30;;;13.38;;
19671;SDS011;9983;51.114;13.788;2023-01-23T01:33:50;30.00;;;13.38;;
19671;SDS011;9983;51.114;13.788;2023-01-23T01:38:51;25.55;;;13.23;;
19671;SDS011;9983;51.114;13.788;2023-01-23T01:43:51;25.40;;;12.95;;
19671;SDS011;9983;51.114;13.788;2023-01-23T01:49:03;23.83;;;12.00;;
19671;SDS011;9983;51.114;13.788;2023-01-23T01:54:13;28.27;;;13.23;;
19671;SDS011;9983;51.114;13.788;2023-01-23T01:59:18;28.08;;;12.40;;
19671;SDS011;9983;51.114;13.788;2023-01-23T02:04:22;30.42;;;13.65;;
19671;SDS011;9983;51.114;13.788;2023-01-23T02:09:25;26.17;;;12.45;;
19671;SDS011;9983;51.114;13.788;2023-01-23T02:14:25;26.55;;;13.15;;
19671;SDS011;9983;51.114;13.788;2023-01-23T02:19:44;29.05;;;13.07;;
19671;SDS011;9983;51.114;13.788;2023-01-23T02:25:05;23.48;;;12.25;;
19671;SDS011;9983;51.114;13.788;2023-01-23T02:30:20;26.98;;;12.85;;
19671;SDS011;9983;51.114;13.788;2023-01-23T02:35:22;27.02;;;13.18;;
19671;SDS011;9983;51.114;13.788;2023-01-23T02:40:31;24.58;;;11.77;;
19671;SDS011;9983;51.114;13.788;2023-01-23T02:45:32;27.67;;;13.30;;
19671;SDS011;9983;51.114;13.788;2023-01-23T02:50:33;27.98;;;13.10;;
19671;SDS011;9983;51.114;13.788;2023-01-23T02:55:33;28.90;;;13.00;;
19671;SDS011;9983;51.114;13.788;2023-01-23T03:00:37;26.40;;;12.27;;
19671;SDS011;9983;51.114;13.788;2023-01-23T03:05:38;27.55;;;13.40;;
19671;SDS011;9983;51.114;13.788;2023-01-23T03:10:38;28.63;;;12.98;;
19671;SDS011;9983;51.114;13.788;2023-01-23T03:15:38;27.40;;;12.77;;
19671;SDS011;9983;51.114;13.788;2023-01-23T03:20:41;25.95;;;12.68;;
19671;SDS011;9983;51.114;13.788;2023-01-23T03:25:44;27.77;;;13.63;;
19671;SDS011;9983;51.114;13.788;2023-01-23T03:30:45;24.92;;;13.55;;
19671;SDS011;9983;51.114;13.788;2023-01-23T03:35:46;24.10;;;12.80;;
19671;SDS011;9983;51.114;13.788;2023-01-23T03:40:48;27.60;;;13.40;;
19671;SDS011;9983;51.114;13.788;2023-01-23T03:46:08;27.17;;;13.23;;
19671;SDS011;9983;51.114;13.788;2023-01-23T03:51:08;27.58;;;13.00;;
19671;SDS011;9983;51.114;13.788;2023-01-23T03:56:09;25.40;;;13.30;;
19671;SDS011;9983;51.114;13.788;2023-01-23T04:01:09;26.27;;;12.77;;
19671;SDS011;9983;51.114;13.788;2023-01-23T04:06:09;26.83;;;13.30;;
19671;SDS011;9983;51.114;13.788;2023-01-23T04:11:10;25.10;;;12.90;;
19671;SDS011;9983;51.114;13.788;2023-01-23T04:16:11;25.48;;;12.05;;
19671;SDS011;9983;51.114;13.788;2023-01-23T04:21:11;30.67;;;13.82;;
19671;SDS011;9983;51.114;13.788;2023-01-23T04:26:12;24.05;;;12.15;;
19671;SDS011;9983;51.114;13.788;2023-01-23T04:31:12;28.88;;;12.13;;
19671;SDS011;9983;51.114;13.788;2023-01-23T04:36:12;25.65;;;12.95;;
19671;SDS011;9983;51.114;13.788;2023-01-23T04:41:16;26.38;;;12.80;;
19671;SDS011;9983;51.114;13.788;2023-01-23T04:46:19;29.08;;;13.13;;
19671;SDS011;9983;51.114;13.788;2023-01-23T04:51:19;26.17;;;13.20;;
19671;SDS011;9983;51.114;13.788;2023-01-23T04:56:20;31.02;;;14.15;;
19671;SDS011;9983;51.114;13.788;2023-01-23T05:01:20;29.42;;;13.90;;
19671;SDS011;9983;51.114;13.788;2023-01-23T05:06:22;37.15;;;14.43;;
19671;SDS011;9983;51.114;13.788;2023-01-23T05:11:22;33.35;;;14.82;;
19671;SDS011;9983;51.114;13.788;2023-01-23T05:16:23;30.70;;;14.73;;
19671;SDS011;9983;51.114;13.788;2023-01-23T05:21:23;38.20;;;15.32;;
19671;SDS011;9983;51.114;13.788;2023-01-23T05:26:23;31.73;;;15.57;;
19671;SDS011;9983;51.114;13.788;2023-01-23T05:31:23;39.00;;;15.95;;
19671;SDS011;9983;51.114;13.788;2023-01-23T05:36:24;39.55;;;16.05;;
19671;SDS011;9983;51.114;13.788;2023-01-23T05:41:24;42.38;;;16.67;;
19671;SDS011;9983;51.114;13.788;2023-01-23T05:46:24;36.25;;;15.15;;
19671;SDS011;9983;51.114;13.788;2023-01-23T05:51:24;33.35;;;15.55;;
19671;SDS011;9983;51.114;13.788;2023-01-23T05:56:30;30.58;;;14.45;;
19671;SDS011;9983;51.114;13.788;2023-01-23T06:01:30;41.20;;;15.57;;
19671;SDS011;9983;51.114;13.788;2023-01-23T06:06:31;36.13;;;15.77;;
19671;SDS011;9983;51.114;13.788;2023-01-23T06:11:31;30.65;;;15.55;;
19671;SDS011;9983;51.114;13.788;2023-01-23T06:16:31;35.15;;;16.60;;
19671;SDS011;9983;51.114;13.788;2023-01-23T06:21:31;39.50;;;16.63;;
19671;SDS011;9983;51.114;13.788;2023-01-23T06:26:32;37.03;;;16.20;;
19671;SDS011;9983;51.114;13.788;2023-01-23T06:31:32;34.38;;;16.70;;
19671;SDS011;9983;51.114;13.788;2023-01-23T06:36:32;38.50;;;16.23;;
19671;SDS011;9983;51.114;13.788;2023-01-23T06:41:33;40.08;;;16.45;;
19671;SDS011;9983;51.114;13.788;2023-01-23T06:46:33;37.00;;;16.50;;
19671;SDS011;9983;51.114;13.788;2023-01-23T06:51:33;34.20;;;16.65;;
19671;SDS011;9983;51.114;13.788;2023-01-23T06:56:34;35.22;;;16.85;;
19671;SDS011;9983;51.114;13.788;2023-01-23T07:01:34;33.38;;;16.23;;
19671;SDS011;9983;51.114;13.788;2023-01-23T07:06:34;31.92;;;16.75;;
19671;SDS011;9983;51.114;13.788;2023-01-23T07:11:34;34.35;;;16.40;;
19671;SDS011;9983;51.114;13.788;2023-01-23T07:16:36;34.55;;;16.50;;
19671;SDS011;9983;51.114;13.788;2023-01-23T07:21:36;35.45;;;16.63;;
19671;SDS011;9983;51.114;13.788;2023-01-23T07:26:36;33.53;;;15.38;;
19671;SDS011;9983;51.114;13.788;2023-01-23T07:31:37;37.70;;;16.45;;
19671;SDS011;9983;51.114;13.788;2023-01-23T07:36:37;40.53;;;17.90;;
19671;SDS011;9983;51.114;13.788;2023-01-23T07:41:37;34.13;;;15.50;;
19671;SDS011;9983;51.114;13.788;2023-01-23T07:46:37;40.88;;;16.40;;
19671;SDS011;9983;51.114;13.788;2023-01-23T07:51:38;30.75;;;16.00;;
19671;SDS011;9983;51.114;13.788;2023-01-23T07:56:38;38.75;;;16.80;;
19671;SDS011;9983;51.114;13.788;2023-01-23T08:01:38;37.42;;;16.85;;
19671;SDS011;9983;51.114;13.788;2023-01-23T08:06:39;36.53;;;16.60;;
19671;SDS011;9983;51.114;13.788;2023-01-23T08:11:39;33.45;;;16.85;;
19671;SDS011;9983;51.114;13.788;2023-01-23T08:16:40;34.83;;;16.38;;
19671;SDS011;9983;51.114;13.788;2023-01-23T08:21:40;34.85;;;16.15;;
19671;SDS011;9983;51.114;13.788;2023-01-23T08:26:40;31.73;;;15.52;;
19671;SDS011;9983;51.114;13.788;2023-01-23T08:31:41;34.70;;;16.45;;
19671;SDS011;9983;51.114;13.788;2023-01-23T08:36:41;30.90;;;16.30;;
19671;SDS011;9983;51.114;13.788;2023-01-23T08:41:41;31.05;;;16.30;;
19671;SDS011;9983;51.114;13.788;2023-01-23T08:46:41;40.45;;;17.90;;
19671;SDS011;9983;51.114;13.788;2023-01-23T08:51:43;36.20;;;17.45;;
19671;SDS011;9983;51.114;13.788;2023-01-23T08:56:44;36.47;;;17.05;;
19671;SDS011;9983;51.114;13.788;2023-01-23T09:01:44;37.75;;;16.17;;
19671;SDS011;9983;51.114;13.788;2023-01-23T09:06:46;34.03;;;16.55;;
19671;SDS011;9983;51.114;13.788;2023-01-23T09:11:47;31.35;;;15.60;;
19671;SDS011;9983;51.114;13.788;2023-01-23T09:16:47;32.92;;;15.63;;
19671;SDS011;9983;51.114;13.788;2023-01-23T09:21:47;39.25;;;17.42;;
19671;SDS011;9983;51.114;13.788;2023-01-23T09:26:47;35.35;;;17.08;;
19671;SDS011;9983;51.114;13.788;2023-01-23T09:31:48;34.83;;;17.05;;
19671;SDS011;9983;51.114;13.788;2023-01-23T09:36:48;34.65;;;15.98;;
19671;SDS011;9983;51.114;13.788;2023-01-23T09:41:48;33.92;;;16.75;;
19671;SDS011;9983;51.114;13.788;2023-01-23T09:46:50;40.72;;;17.65;;
19671;SDS011;9983;51.114;13.788;2023-01-23T09:57:28;30.50;;;16.30;;
19671;SDS011;9983;51.114;13.788;2023-01-23T10:02:33;31.52;;;15.93;;
19671;SDS011;9983;51.114;13.788;2023-01-23T10:07:39;27.52;;;15.25;;
19671;SDS011;9983;51.114;13.788;2023-01-23T10:12:46;30.92;;;16.52;;
19671;SDS011;9983;51.114;13.788;2023-01-23T10:17:55;29.58;;;15.40;;
19671;SDS011;9983;51.114;13.788;2023-01-23T10:23:28;29.98;;;16.40;;
19671;SDS011;9983;51.114;13.788;2023-01-23T10:28:35;29.35;;;15.68;;
19671;SDS011;9983;51.114;13.788;2023-01-23T10:33:44;28.67;;;15.75;;
19671;SDS011;9983;51.114;13.788;2023-01-23T10:38:56;28.73;;;15.50;;
19671;SDS011;9983;51.114;13.788;2023-01-23T10:44:00;26.75;;;14.20;;
19671;SDS011;9983;51.114;13.788;2023-01-23T10:49:01;24.25;;;13.32;;
19671;SDS011;9983;51.114;13.788;2023-01-23T10:54:05;19.80;;;12.73;;
19671;SDS011;9983;51.114;13.788;2023-01-23T10:59:06;22.08;;;13.50;;
19671;SDS011;9983;51.114;13.788;2023-01-23T11:04:18;22.50;;;13.93;;
19671;SDS011;9983;51.114;13.788;2023-01-23T11:09:22;25.42;;;14.57;;
19671;SDS011;9983;51.114;13.788;2023-01-23T11:14:22;24.95;;;14.73;;
19671;SDS011;9983;51.114;13.788;2023-01-23T11:19:23;24.80;;;14.95;;
19671;SDS011;9983;51.114;13.788;2023-01-23T11:29:24;25.60;;;14.98;;
19671;SDS011;9983;51.114;13.788;2023-01-23T11:34:28;26.30;;;15.50;;
19671;SDS011;9983;51.114;13.788;2023-01-23T11:39:38;28.20;;;15.68;;
19671;SDS011;9983;51.114;13.788;2023-01-23T11:44:44;27.15;;;16.40;;
19671;SDS011;9983;51.114;13.788;2023-01-23T12:05:50;29.85;;;15.55;;
19671;SDS011;9983;51.114;13.788;2023-01-23T12:21:39;31.35;;;16.83;;
19671;SDS011;9983;51.114;13.788;2023-01-23T12:43:02;28.75;;;17.35;;
19671;SDS011;9983;51.114;13.788;2023-01-23T12:48:21;32.92;;;18.08;;
19671;SDS011;9983;51.114;13.788;2023-01-23T12:53:27;34.70;;;19.35;;
19671;SDS011;9983;51.114;13.788;2023-01-23T12:58:34;36.22;;;19.23;;
19671;SDS011;9983;51.114;13.788;2023-01-23T13:03:43;33.67;;;18.65;;
19671;SDS011;9983;51.114;13.788;2023-01-23T13:09:16;35.63;;;19.13;;
19671;SDS011;9983;51.114;13.788;2023-01-23T13:19:31;43.17;;;20.73;;
19671;SDS011;9983;51.114;13.788;2023-01-23T13:25:10;40.50;;;19.25;;
19671;SDS011;9983;51.114;13.788;2023-01-23T13:30:35;42.08;;;20.58;;
19671;SDS011;9983;51.114;13.788;2023-01-23T13:46:21;44.53;;;21.40;;
19671;SDS011;9983;51.114;13.788;2023-01-23T13:51:43;45.20;;;21.13;;
19671;SDS011;9983;51.114;13.788;2023-01-23T13:56:43;48.92;;;21.88;;
19671;SDS011;9983;51.114;13.788;2023-01-23T14:01:53;45.72;;;22.80;;
19671;SDS011;9983;51.114;13.788;2023-01-23T14:07:30;39.17;;;19.58;;
19671;SDS011;9983;51.114;13.788;2023-01-23T14:13:05;47.25;;;21.83;;
19671;SDS011;9983;51.114;13.788;2023-01-23T14:18:12;45.25;;;21.05;;
19671;SDS011;9983;51.114;13.788;2023-01-23T14:23:17;52.78;;;21.25;;
19671;SDS011;9983;51.114;13.788;2023-01-23T14:28:24;48.70;;;23.42;;
19671;SDS011;9983;51.114;13.788;2023-01-23T14:33:26;51.35;;;22.77;;
19671;SDS011;9983;51.114;13.788;2023-01-23T14:38:29;46.85;;;21.63;;
19671;SDS011;9983;51.114;13.788;2023-01-23T14:43:33;46.38;;;22.25;;
19671;SDS011;9983;51.114;13.788;2023-01-23T14:48:35;50.10;;;22.80;;
19671;SDS011;9983;51.114;13.788;2023-01-23T14:53:40;52.25;;;22.75;;
19671;SDS011;9983;51.114;13.788;2023-01-23T14:58:40;54.97;;;22.60;;
19671;SDS011;9983;51.114;13.788;2023-01-23T15:03:54;55.70;;;23.50;;
19671;SDS011;9983;51.114;13.788;2023-01-23T15:09:04;65.40;;;23.73;;
19671;SDS011;9983;51.114;13.788;2023-01-23T15:14:14;56.47;;;23.83;;
19671;SDS011;9983;51.114;13.788;2023-01-23T15:19:22;52.88;;;23.52;;
19671;SDS011;9983;51.114;13.788;2023-01-23T15:24:26;54.05;;;22.55;;
19671;SDS011;9983;51.114;13.788;2023-01-23T15:29:27;48.42;;;22.25;;
19671;SDS011;9983;51.114;13.788;2023-01-23T15:34:32;60.05;;;22.90;;
19671;SDS011;9983;51.114;13.788;2023-01-23T15:44:45;49.22;;;21.02;;
19671;SDS011;9983;51.114;13.788;2023-01-23T15:49:45;61.75;;;23.17;;
19671;SDS011;9983;51.114;13.788;2023-01-23T15:54:46;56.08;;;21.60;;
19671;SDS011;9983;51.114;13.788;2023-01-23T15:59:47;56.78;;;22.17;;
19671;SDS011;9983;51.114;13.788;2023-01-23T16:04:48;52.58;;;21.88;;
19671;SDS011;9983;51.114;13.788;2023-01-23T16:09:48;56.72;;;22.05;;
19671;SDS011;9983;51.114;13.788;2023-01-23T16:14:49;58.65;;;23.17;;
19671;SDS011;9983;51.114;13.788;2023-01-23T16:19:50;56.72;;;23.08;;
19671;SDS011;9983;51.114;13.788;2023-01-23T16:24:50;59.22;;;24.08;;
19671;SDS011;9983;51.114;13.788;2023-01-23T16:29:50;55.13;;;22.23;;
19671;SDS011;9983;51.114;13.788;2023-01-23T16:34:51;48.22;;;19.15;;
19671;SDS011;9983;51.114;13.788;2023-01-23T16:39:51;48.90;;;20.80;;
19671;SDS011;9983;51.114;13.788;2023-01-23T16:44:51;49.63;;;22.15;;
19671;SDS011;9983;51.114;13.788;2023-01-23T16:49:52;46.00;;;19.63;;
19671;SDS011;9983;51.114;13.788;2023-01-23T16:54:52;47.05;;;21.58;;
19671;SDS011;9983;51.114;13.788;2023-01-23T16:59:53;44.17;;;20.92;;
19671;SDS011;9983;51.114;13.788;2023-01-23T17:04:55;45.78;;;20.02;;
19671;SDS011;9983;51.114;13.788;2023-01-23T17:09:55;48.33;;;21.40;;
19671;SDS011;9983;51.114;13.788;2023-01-23T17:14:55;46.63;;;21.90;;
19671;SDS011;9983;51.114;13.788;2023-01-23T17:19:56;45.00;;;21.08;;
19671;SDS011;9983;51.114;13.788;2023-01-23T17:24:57;43.67;;;19.88;;
19671;SDS011;9983;51.114;13.788;2023-01-23T17:29:58;42.85;;;19.92;;
19671;SDS011;9983;51.114;13.788;2023-01-23T17:34:58;44.38;;;20.65;;
19671;SDS011;9983;51.114;13.788;2023-01-23T17:40:01;49.42;;;23.10;;
19671;SDS011;9983;51.114;13.788;2023-01-23T17:45:02;46.30;;;21.63;;
19671;SDS011;9983;51.114;13.788;2023-01-23T17:50:02;42.53;;;20.83;;
19671;SDS011;9983;51.114;13.788;2023-01-23T17:55:03;41.38;;;20.42;;
19671;SDS011;9983;51.114;13.788;2023-01-23T18:00:04;48.13;;;20.70;;
19671;SDS011;9983;51.114;13.788;2023-01-23T18:05:05;46.42;;;20.38;;
19671;SDS011;9983;51.114;13.788;2023-01-23T18:10:10;49.17;;;22.90;;
19671;SDS011;9983;51.114;13.788;2023-01-23T18:15:25;45.88;;;21.65;;
19671;SDS011;9983;51.114;13.788;2023-01-23T18:20:31;40.28;;;19.63;;
19671;SDS011;9983;51.114;13.788;2023-01-23T18:25:32;44.00;;;20.17;;
19671;SDS011;9983;51.114;13.788;2023-01-23T18:30:38;41.50;;;20.35;;
19671;SDS011;9983;51.114;13.788;2023-01-23T18:36:04;41.83;;;20.85;;
19671;SDS011;9983;51.114;13.788;2023-01-23T18:41:15;50.08;;;20.23;;
19671;SDS011;9983;51.114;13.788;2023-01-23T18:46:26;44.58;;;20.48;;
19671;SDS011;9983;51.114;13.788;2023-01-23T18:51:36;47.10;;;21.27;;
19671;SDS011;9983;51.114;13.788;2023-01-23T19:07:42;46.08;;;20.08;;
19671;SDS011;9983;51.114;13.788;2023-01-23T19:23:43;55.35;;;23.10;;
19671;SDS011;9983;51.114;13.788;2023-01-23T19:28:49;54.33;;;22.40;;
19671;SDS011;9983;51.114;13.788;2023-01-23T19:33:49;58.60;;;24.00;;
19671;SDS011;9983;51.114;13.788;2023-01-23T19:38:50;52.08;;;21.13;;
19671;SDS011;9983;51.114;13.788;2023-01-23T19:43:59;52.90;;;22.33;;
19671;SDS011;9983;51.114;13.788;2023-01-23T19:49:01;50.58;;;22.23;;
19671;SDS011;9983;51.114;13.788;2023-01-23T19:54:03;50.13;;;21.80;;
19671;SDS011;9983;51.114;13.788;2023-01-23T19:59:08;54.30;;;23.67;;
19671;SDS011;9983;51.114;13.788;2023-01-23T20:04:12;55.90;;;23.25;;
19671;SDS011;9983;51.114;13.788;2023-01-23T20:09:14;50.95;;;22.38;;
19671;SDS011;9983;51.114;13.788;2023-01-23T20:14:15;56.38;;;24.13;;
19671;SDS011;9983;51.114;13.788;2023-01-23T20:19:15;52.40;;;22.42;;
19671;SDS011;9983;51.114;13.788;2023-01-23T20:24:16;57.20;;;24.40;;
19671;SDS011;9983;51.114;13.788;2023-01-23T20:29:16;53.10;;;23.98;;
19671;SDS011;9983;51.114;13.788;2023-01-23T20:34:17;59.35;;;24.08;;
19671;SDS011;9983;51.114;13.788;2023-01-23T20:39:17;59.55;;;24.00;;
19671;SDS011;9983;51.114;13.788;2023-01-23T20:44:17;61.70;;;24.90;;
19671;SDS011;9983;51.114;13.788;2023-01-23T20:49:17;55.97;;;24.40;;
19671;SDS011;9983;51.114;13.788;2023-01-23T20:54:18;57.08;;;24.85;;
19671;SDS011;9983;51.114;13.788;2023-01-23T20:59:18;60.40;;;23.90;;
19671;SDS011;9983;51.114;13.788;2023-01-23T21:04:20;59.45;;;24.13;;
19671;SDS011;9983;51.114;13.788;2023-01-23T21:09:22;55.92;;;23.17;;
19671;SDS011;9983;51.114;13.788;2023-01-23T21:14:22;58.20;;;24.83;;
19671;SDS011;9983;51.114;13.788;2023-01-23T21:19:23;55.58;;;23.83;;
19671;SDS011;9983;51.114;13.788;2023-01-23T21:24:23;54.47;;;23.42;;
19671;SDS011;9983;51.114;13.788;2023-01-23T21:29:24;55.47;;;24.75;;
19671;SDS011;9983;51.114;13.788;2023-01-23T21:34:24;65.55;;;25.60;;
19671;SDS011;9983;51.114;13.788;2023-01-23T21:39:25;60.40;;;25.00;;
19671;SDS011;9983;51.114;13.788;2023-01-23T21:44:25;60.38;;;25.13;;
19671;SDS011;9983;51.114;13.788;2023-01-23T21:49:26;62.05;;;25.35;;
19671;SDS011;9983;51.114;13.788;2023-01-23T21:54:26;61.55;;;24.85;;
19671;SDS011;9983;51.114;13.788;2023-01-23T21:59:26;61.15;;;25.55;;
19671;SDS011;9983;51.114;13.788;2023-01-23T22:04:26;60.95;;;25.52;;
19671;SDS011;9983;51.114;13.788;2023-01-23T22:09:28;63.08;;;24.40;;
19671;SDS011;9983;51.114;13.788;2023-01-23T22:14:28;64.47;;;26.40;;
19671;SDS011;9983;51.114;13.788;2023-01-23T22:19:29;61.92;;;25.15;;
19671;SDS011;9983;51.114;13.788;2023-01-23T22:24:29;61.30;;;24.55;;
19671;SDS011;9983;51.114;13.788;2023-01-23T22:29:30;71.65;;;25.73;;
19671;SDS011;9983;51.114;13.788;2023-01-23T22:34:30;71.88;;;28.10;;
19671;SDS011;9983;51.114;13.788;2023-01-23T22:39:30;64.30;;;25.92;;
19671;SDS011;9983;51.114;13.788;2023-01-23T22:44:31;64.40;;;26.70;;
19671;SDS011;9983;51.114;13.788;2023-01-23T22:49:31;68.57;;;27.83;;
19671;SDS011;9983;51.114;13.788;2023-01-23T22:54:31;65.53;;;26.40;;
19671;SDS011;9983;51.114;13.788;2023-01-23T22:59:31;77.88;;;28.48;;
19671;SDS011;9983;51.114;13.788;2023-01-23T23:04:32;66.57;;;26.80;;
19671;SDS011;9983;51.114;13.788;2023-01-23T23:09:32;67.05;;;26.55;;
19671;SDS011;9983;51.114;13.788;2023-01-23T23:14:32;52.50;;;22.67;;
19671;SDS011;9983;51.114;13.788;2023-01-23T23:19:33;73.47;;;27.83;;
19671;SDS011;9983;51.114;13.788;2023-01-23T23:24:33;72.03;;;27.77;;
19671;SDS011;9983;51.114;13.788;2023-01-23T23:29:33;72.45;;;27.27;;
19671;SDS011;9983;51.114;13.788;2023-01-23T23:34:33;74.07;;;28.63;;
19671;SDS011;9983;51.114;13.788;2023-01-23T23:39:33;74.78;;;28.23;;
19671;SDS011;9983;51.114;13.788;2023-01-23T23:44:34;64.90;;;26.75;;
19671;SDS011;9983;51.114;13.788;2023-01-23T23:49:34;68.85;;;26.70;;
19671;SDS011;9983;51.114;13.788;2023-01-23T23:54:34;68.55;;;27.30;;
19671;SDS011;9983;51.114;13.788;2023-01-23T23:59:34;64.93;;;26.45;;
